sensor_id;sensor_type;location;lat;lon;timestamp;temperature;humidity
11136;DHT22;5622;50.840;4.948;2022-08-19T00:01:48;19.00;99.90
11136;DHT22;5622;50.840;4.948;2022-08-19T00:04:18;19.00;99.90
11136;DHT22;5622;50.840;4.948;2022-08-19T00:06:46;19.00;99.90
11136;DHT22;5622;50.840;4.948;2022-08-19T00:09:16;19.00;99.90
11136;DHT22;5622;50.840;4.948;2022-08-19T00:11:46;19.00;99.90
11136;DHT22;5622;50.840;4.948;2022-08-19T00:14:15;19.00;99.90
11136;DHT22;5622;50.840;4.948;2022-08-19T00:16:44;19.00;99.90
11136;DHT22;5622;50.840;4.948;2022-08-19T00:19:12;19.00;99.90
11136;DHT22;5622;50.840;4.948;2022-08-19T00:21:39;19.00;99.90
11136;DHT22;5622;50.840;4.948;2022-08-19T00:24:07;19.00;99.90
11136;DHT22;5622;50.840;4.948;2022-08-19T00:26:35;19.00;99.90
11136;DHT22;5622;50.840;4.948;2022-08-19T00:29:05;19.00;99.90
11136;DHT22;5622;50.840;4.948;2022-08-19T00:31:33;19.00;99.90
11136;DHT22;5622;50.840;4.948;2022-08-19T00:34:01;19.00;99.90
11136;DHT22;5622;50.840;4.948;2022-08-19T00:36:28;19.00;99.90
11136;DHT22;5622;50.840;4.948;2022-08-19T00:38:57;19.00;99.90
11136;DHT22;5622;50.840;4.948;2022-08-19T00:41:25;19.00;99.90
11136;DHT22;5622;50.840;4.948;2022-08-19T00:44:05;18.90;99.90
11136;DHT22;5622;50.840;4.948;2022-08-19T00:46:34;18.90;99.90
11136;DHT22;5622;50.840;4.948;2022-08-19T00:49:06;18.90;99.90
11136;DHT22;5622;50.840;4.948;2022-08-19T00:51:35;18.90;99.90
11136;DHT22;5622;50.840;4.948;2022-08-19T00:54:03;18.80;99.90
11136;DHT22;5622;50.840;4.948;2022-08-19T00:56:30;18.80;99.90
11136;DHT22;5622;50.840;4.948;2022-08-19T00:59:00;18.80;99.90
11136;DHT22;5622;50.840;4.948;2022-08-19T01:01:29;18.80;99.90
11136;DHT22;5622;50.840;4.948;2022-08-19T01:03:56;18.80;99.90
11136;DHT22;5622;50.840;4.948;2022-08-19T01:06:23;18.80;99.90
11136;DHT22;5622;50.840;4.948;2022-08-19T01:08:51;18.70;99.90
11136;DHT22;5622;50.840;4.948;2022-08-19T01:11:18;18.70;99.90
11136;DHT22;5622;50.840;4.948;2022-08-19T01:13:46;18.70;99.90
11136;DHT22;5622;50.840;4.948;2022-08-19T01:16:13;18.70;99.90
11136;DHT22;5622;50.840;4.948;2022-08-19T01:18:42;18.70;99.90
11136;DHT22;5622;50.840;4.948;2022-08-19T01:21:15;18.70;99.90
11136;DHT22;5622;50.840;4.948;2022-08-19T01:23:45;18.70;99.90
11136;DHT22;5622;50.840;4.948;2022-08-19T01:26:15;18.70;99.90
11136;DHT22;5622;50.840;4.948;2022-08-19T01:28:44;18.60;99.90
11136;DHT22;5622;50.840;4.948;2022-08-19T01:31:14;18.60;99.90
11136;DHT22;5622;50.840;4.948;2022-08-19T01:33:41;18.60;99.90
11136;DHT22;5622;50.840;4.948;2022-08-19T01:36:12;18.50;99.90
11136;DHT22;5622;50.840;4.948;2022-08-19T01:38:43;18.50;99.90
11136;DHT22;5622;50.840;4.948;2022-08-19T01:41:12;18.50;99.90
11136;DHT22;5622;50.840;4.948;2022-08-19T01:43:39;18.50;99.90
11136;DHT22;5622;50.840;4.948;2022-08-19T01:46:06;18.50;99.90
11136;DHT22;5622;50.840;4.948;2022-08-19T01:48:36;18.50;99.90
11136;DHT22;5622;50.840;4.948;2022-08-19T01:51:03;18.50;99.90
11136;DHT22;5622;50.840;4.948;2022-08-19T01:53:31;18.50;99.90
11136;DHT22;5622;50.840;4.948;2022-08-19T01:55:58;18.50;99.90
11136;DHT22;5622;50.840;4.948;2022-08-19T01:58:30;18.50;99.90
11136;DHT22;5622;50.840;4.948;2022-08-19T02:00:59;18.60;99.90
11136;DHT22;5622;50.840;4.948;2022-08-19T02:03:26;18.50;99.90
11136;DHT22;5622;50.840;4.948;2022-08-19T02:05:58;18.50;99.90
11136;DHT22;5622;50.840;4.948;2022-08-19T02:08:25;18.60;99.90
11136;DHT22;5622;50.840;4.948;2022-08-19T02:10:52;18.50;99.90
11136;DHT22;5622;50.840;4.948;2022-08-19T02:13:20;18.50;99.90
11136;DHT22;5622;50.840;4.948;2022-08-19T02:15:48;18.50;99.90
11136;DHT22;5622;50.840;4.948;2022-08-19T02:18:15;18.60;99.90
11136;DHT22;5622;50.840;4.948;2022-08-19T02:20:44;18.60;99.90
11136;DHT22;5622;50.840;4.948;2022-08-19T02:23:13;18.60;99.90
11136;DHT22;5622;50.840;4.948;2022-08-19T02:25:41;18.60;99.90
11136;DHT22;5622;50.840;4.948;2022-08-19T02:28:08;18.50;99.90
11136;DHT22;5622;50.840;4.948;2022-08-19T02:30:35;18.50;99.90
11136;DHT22;5622;50.840;4.948;2022-08-19T02:33:04;18.50;99.90
11136;DHT22;5622;50.840;4.948;2022-08-19T02:35:31;18.50;99.90
11136;DHT22;5622;50.840;4.948;2022-08-19T02:37:58;18.50;99.90
11136;DHT22;5622;50.840;4.948;2022-08-19T02:40:48;18.50;99.90
11136;DHT22;5622;50.840;4.948;2022-08-19T02:43:17;18.50;99.90
11136;DHT22;5622;50.840;4.948;2022-08-19T02:45:46;18.50;99.90
11136;DHT22;5622;50.840;4.948;2022-08-19T02:48:15;18.50;99.90
11136;DHT22;5622;50.840;4.948;2022-08-19T02:50:44;18.50;99.90
11136;DHT22;5622;50.840;4.948;2022-08-19T02:53:12;18.40;99.90
11136;DHT22;5622;50.840;4.948;2022-08-19T02:55:43;18.40;99.90
11136;DHT22;5622;50.840;4.948;2022-08-19T02:58:30;18.40;99.90
11136;DHT22;5622;50.840;4.948;2022-08-19T03:00:57;18.40;99.90
11136;DHT22;5622;50.840;4.948;2022-08-19T03:03:26;18.40;99.90
11136;DHT22;5622;50.840;4.948;2022-08-19T03:06:03;18.40;99.90
11136;DHT22;5622;50.840;4.948;2022-08-19T03:08:31;18.40;99.90
11136;DHT22;5622;50.840;4.948;2022-08-19T03:10:59;18.30;99.90
11136;DHT22;5622;50.840;4.948;2022-08-19T03:13:26;18.40;99.90
11136;DHT22;5622;50.840;4.948;2022-08-19T03:15:53;18.30;99.90
11136;DHT22;5622;50.840;4.948;2022-08-19T03:18:21;18.20;99.90
11136;DHT22;5622;50.840;4.948;2022-08-19T03:20:51;18.30;99.90
11136;DHT22;5622;50.840;4.948;2022-08-19T03:23:20;18.30;99.90
11136;DHT22;5622;50.840;4.948;2022-08-19T03:25:49;18.20;99.90
11136;DHT22;5622;50.840;4.948;2022-08-19T03:28:16;18.20;99.90
11136;DHT22;5622;50.840;4.948;2022-08-19T03:30:56;18.20;99.90
11136;DHT22;5622;50.840;4.948;2022-08-19T03:33:28;18.20;99.90
11136;DHT22;5622;50.840;4.948;2022-08-19T03:36:18;18.20;99.90
11136;DHT22;5622;50.840;4.948;2022-08-19T03:38:49;18.20;99.90
11136;DHT22;5622;50.840;4.948;2022-08-19T03:41:19;18.20;99.90
11136;DHT22;5622;50.840;4.948;2022-08-19T03:43:46;18.20;99.90
11136;DHT22;5622;50.840;4.948;2022-08-19T03:46:17;18.20;99.90
11136;DHT22;5622;50.840;4.948;2022-08-19T03:48:47;18.20;99.90
11136;DHT22;5622;50.840;4.948;2022-08-19T03:51:22;18.10;99.90
11136;DHT22;5622;50.840;4.948;2022-08-19T03:53:50;18.10;99.90
11136;DHT22;5622;50.840;4.948;2022-08-19T03:59:26;18.10;99.90
11136;DHT22;5622;50.840;4.948;2022-08-19T04:01:54;18.10;99.90
11136;DHT22;5622;50.840;4.948;2022-08-19T04:04:22;18.10;99.90
11136;DHT22;5622;50.840;4.948;2022-08-19T04:06:51;18.10;99.90
11136;DHT22;5622;50.840;4.948;2022-08-19T04:09:19;18.00;99.90
11136;DHT22;5622;50.840;4.948;2022-08-19T04:11:49;18.00;99.90
11136;DHT22;5622;50.840;4.948;2022-08-19T04:14:21;18.00;99.90
11136;DHT22;5622;50.840;4.948;2022-08-19T04:16:49;17.90;99.90
11136;DHT22;5622;50.840;4.948;2022-08-19T04:19:17;17.90;99.90
11136;DHT22;5622;50.840;4.948;2022-08-19T04:21:47;17.90;99.90
11136;DHT22;5622;50.840;4.948;2022-08-19T04:24:16;17.90;99.90
11136;DHT22;5622;50.840;4.948;2022-08-19T04:26:44;17.90;99.90
11136;DHT22;5622;50.840;4.948;2022-08-19T04:29:14;17.80;99.90
11136;DHT22;5622;50.840;4.948;2022-08-19T04:31:43;17.80;99.90
11136;DHT22;5622;50.840;4.948;2022-08-19T04:34:12;17.80;99.90
11136;DHT22;5622;50.840;4.948;2022-08-19T04:36:41;17.80;99.90
11136;DHT22;5622;50.840;4.948;2022-08-19T04:39:11;17.80;99.90
11136;DHT22;5622;50.840;4.948;2022-08-19T04:41:40;17.60;99.90
11136;DHT22;5622;50.840;4.948;2022-08-19T04:44:25;17.70;99.90
11136;DHT22;5622;50.840;4.948;2022-08-19T04:46:56;17.80;99.90
11136;DHT22;5622;50.840;4.948;2022-08-19T04:49:24;17.70;99.90
11136;DHT22;5622;50.840;4.948;2022-08-19T04:51:53;17.70;99.90
11136;DHT22;5622;50.840;4.948;2022-08-19T04:54:22;17.60;99.90
11136;DHT22;5622;50.840;4.948;2022-08-19T04:56:52;17.70;99.90
11136;DHT22;5622;50.840;4.948;2022-08-19T04:59:20;17.60;99.90
11136;DHT22;5622;50.840;4.948;2022-08-19T05:01:48;17.60;99.90
11136;DHT22;5622;50.840;4.948;2022-08-19T05:04:18;17.60;99.90
11136;DHT22;5622;50.840;4.948;2022-08-19T05:06:46;17.50;99.90
11136;DHT22;5622;50.840;4.948;2022-08-19T05:09:13;17.60;99.90
11136;DHT22;5622;50.840;4.948;2022-08-19T05:11:41;17.60;99.90
11136;DHT22;5622;50.840;4.948;2022-08-19T05:14:11;17.60;99.90
11136;DHT22;5622;50.840;4.948;2022-08-19T05:16:39;17.60;99.90
11136;DHT22;5622;50.840;4.948;2022-08-19T05:19:06;17.50;99.90
11136;DHT22;5622;50.840;4.948;2022-08-19T05:21:51;17.50;99.90
11136;DHT22;5622;50.840;4.948;2022-08-19T05:24:36;17.60;99.90
11136;DHT22;5622;50.840;4.948;2022-08-19T05:27:03;17.60;99.90
11136;DHT22;5622;50.840;4.948;2022-08-19T05:29:33;17.60;99.90
11136;DHT22;5622;50.840;4.948;2022-08-19T05:32:02;17.50;99.90
11136;DHT22;5622;50.840;4.948;2022-08-19T05:34:31;17.50;99.90
11136;DHT22;5622;50.840;4.948;2022-08-19T05:36:59;17.50;99.90
11136;DHT22;5622;50.840;4.948;2022-08-19T05:39:29;17.50;99.90
11136;DHT22;5622;50.840;4.948;2022-08-19T05:42:01;17.50;99.90
11136;DHT22;5622;50.840;4.948;2022-08-19T05:44:30;17.50;99.90
11136;DHT22;5622;50.840;4.948;2022-08-19T05:47:00;17.60;99.90
11136;DHT22;5622;50.840;4.948;2022-08-19T05:49:30;17.60;99.90
11136;DHT22;5622;50.840;4.948;2022-08-19T05:51:57;17.60;99.90
11136;DHT22;5622;50.840;4.948;2022-08-19T05:54:25;17.60;99.90
11136;DHT22;5622;50.840;4.948;2022-08-19T05:56:53;17.70;99.90
11136;DHT22;5622;50.840;4.948;2022-08-19T05:59:20;17.60;99.90
11136;DHT22;5622;50.840;4.948;2022-08-19T06:01:50;17.70;99.90
11136;DHT22;5622;50.840;4.948;2022-08-19T06:04:22;17.70;99.90
11136;DHT22;5622;50.840;4.948;2022-08-19T06:06:50;17.70;99.90
11136;DHT22;5622;50.840;4.948;2022-08-19T06:09:19;17.70;99.90
11136;DHT22;5622;50.840;4.948;2022-08-19T06:11:48;17.70;99.90
11136;DHT22;5622;50.840;4.948;2022-08-19T06:14:21;17.70;99.90
11136;DHT22;5622;50.840;4.948;2022-08-19T06:16:49;17.80;99.90
11136;DHT22;5622;50.840;4.948;2022-08-19T06:19:19;17.80;99.90
11136;DHT22;5622;50.840;4.948;2022-08-19T06:21:50;17.80;99.90
11136;DHT22;5622;50.840;4.948;2022-08-19T06:24:19;17.80;99.90
11136;DHT22;5622;50.840;4.948;2022-08-19T06:26:48;17.80;99.90
11136;DHT22;5622;50.840;4.948;2022-08-19T06:29:17;17.80;99.90
11136;DHT22;5622;50.840;4.948;2022-08-19T06:31:48;17.80;99.90
11136;DHT22;5622;50.840;4.948;2022-08-19T06:34:16;17.80;99.90
11136;DHT22;5622;50.840;4.948;2022-08-19T06:36:45;17.90;99.90
11136;DHT22;5622;50.840;4.948;2022-08-19T06:39:19;17.80;99.90
11136;DHT22;5622;50.840;4.948;2022-08-19T06:41:49;17.90;99.90
11136;DHT22;5622;50.840;4.948;2022-08-19T06:44:18;18.00;99.90
11136;DHT22;5622;50.840;4.948;2022-08-19T06:46:45;18.00;99.90
11136;DHT22;5622;50.840;4.948;2022-08-19T06:49:14;18.10;99.90
11136;DHT22;5622;50.840;4.948;2022-08-19T06:51:42;18.10;99.90
11136;DHT22;5622;50.840;4.948;2022-08-19T06:54:10;18.10;99.90
11136;DHT22;5622;50.840;4.948;2022-08-19T06:56:39;18.20;99.90
11136;DHT22;5622;50.840;4.948;2022-08-19T06:59:09;18.20;99.90
11136;DHT22;5622;50.840;4.948;2022-08-19T07:01:36;18.20;99.90
11136;DHT22;5622;50.840;4.948;2022-08-19T07:04:05;18.30;99.90
11136;DHT22;5622;50.840;4.948;2022-08-19T07:06:33;18.30;99.90
11136;DHT22;5622;50.840;4.948;2022-08-19T07:09:00;18.40;99.90
11136;DHT22;5622;50.840;4.948;2022-08-19T07:11:27;18.50;99.90
11136;DHT22;5622;50.840;4.948;2022-08-19T07:13:57;18.50;99.90
11136;DHT22;5622;50.840;4.948;2022-08-19T07:16:24;18.60;99.90
11136;DHT22;5622;50.840;4.948;2022-08-19T07:18:53;18.70;99.90
11136;DHT22;5622;50.840;4.948;2022-08-19T07:21:24;18.70;99.90
11136;DHT22;5622;50.840;4.948;2022-08-19T07:23:54;18.80;99.90
11136;DHT22;5622;50.840;4.948;2022-08-19T07:26:24;18.90;99.90
11136;DHT22;5622;50.840;4.948;2022-08-19T07:28:51;18.90;99.90
11136;DHT22;5622;50.840;4.948;2022-08-19T07:31:22;18.90;99.90
11136;DHT22;5622;50.840;4.948;2022-08-19T07:33:52;19.00;99.90
11136;DHT22;5622;50.840;4.948;2022-08-19T07:36:23;19.00;99.90
11136;DHT22;5622;50.840;4.948;2022-08-19T07:38:51;19.00;99.90
11136;DHT22;5622;50.840;4.948;2022-08-19T07:41:21;19.10;99.90
11136;DHT22;5622;50.840;4.948;2022-08-19T07:43:49;19.10;99.90
11136;DHT22;5622;50.840;4.948;2022-08-19T07:46:17;19.10;99.90
11136;DHT22;5622;50.840;4.948;2022-08-19T07:48:49;19.10;99.90
11136;DHT22;5622;50.840;4.948;2022-08-19T07:51:18;19.20;99.90
11136;DHT22;5622;50.840;4.948;2022-08-19T07:53:46;19.30;99.90
11136;DHT22;5622;50.840;4.948;2022-08-19T07:56:14;19.30;99.90
11136;DHT22;5622;50.840;4.948;2022-08-19T07:58:43;19.40;99.90
11136;DHT22;5622;50.840;4.948;2022-08-19T08:01:13;19.40;99.90
11136;DHT22;5622;50.840;4.948;2022-08-19T08:03:41;19.50;99.90
11136;DHT22;5622;50.840;4.948;2022-08-19T08:06:29;19.60;99.90
11136;DHT22;5622;50.840;4.948;2022-08-19T08:09:15;19.70;99.90
11136;DHT22;5622;50.840;4.948;2022-08-19T08:11:49;19.80;99.90
11136;DHT22;5622;50.840;4.948;2022-08-19T08:14:19;20.00;99.90
11136;DHT22;5622;50.840;4.948;2022-08-19T08:16:49;20.30;99.90
11136;DHT22;5622;50.840;4.948;2022-08-19T08:19:18;20.50;99.90
11136;DHT22;5622;50.840;4.948;2022-08-19T08:21:47;20.50;99.90
11136;DHT22;5622;50.840;4.948;2022-08-19T08:24:14;20.80;99.90
11136;DHT22;5622;50.840;4.948;2022-08-19T08:26:42;20.90;99.90
11136;DHT22;5622;50.840;4.948;2022-08-19T08:29:10;20.90;99.90
11136;DHT22;5622;50.840;4.948;2022-08-19T08:31:39;21.00;99.90
11136;DHT22;5622;50.840;4.948;2022-08-19T08:34:07;20.90;99.90
11136;DHT22;5622;50.840;4.948;2022-08-19T08:36:36;20.90;99.90
11136;DHT22;5622;50.840;4.948;2022-08-19T08:39:08;20.90;99.90
11136;DHT22;5622;50.840;4.948;2022-08-19T08:41:42;21.00;99.90
11136;DHT22;5622;50.840;4.948;2022-08-19T08:44:17;21.00;99.90
11136;DHT22;5622;50.840;4.948;2022-08-19T08:46:49;20.90;99.90
11136;DHT22;5622;50.840;4.948;2022-08-19T08:49:26;20.90;99.90
11136;DHT22;5622;50.840;4.948;2022-08-19T08:51:59;21.00;99.90
11136;DHT22;5622;50.840;4.948;2022-08-19T08:54:35;21.20;99.90
11136;DHT22;5622;50.840;4.948;2022-08-19T08:57:05;21.20;99.90
11136;DHT22;5622;50.840;4.948;2022-08-19T08:59:36;21.50;99.90
11136;DHT22;5622;50.840;4.948;2022-08-19T09:02:04;21.70;99.90
11136;DHT22;5622;50.840;4.948;2022-08-19T09:04:31;22.00;99.90
11136;DHT22;5622;50.840;4.948;2022-08-19T09:07:10;22.20;99.90
11136;DHT22;5622;50.840;4.948;2022-08-19T09:09:46;22.60;99.90
11136;DHT22;5622;50.840;4.948;2022-08-19T09:12:19;22.70;99.90
11136;DHT22;5622;50.840;4.948;2022-08-19T09:14:51;22.80;99.90
11136;DHT22;5622;50.840;4.948;2022-08-19T09:17:22;22.70;99.90
11136;DHT22;5622;50.840;4.948;2022-08-19T09:19:59;22.60;99.90
11136;DHT22;5622;50.840;4.948;2022-08-19T09:22:30;22.60;99.90
11136;DHT22;5622;50.840;4.948;2022-08-19T09:24:59;22.50;99.90
11136;DHT22;5622;50.840;4.948;2022-08-19T09:27:27;22.50;99.90
11136;DHT22;5622;50.840;4.948;2022-08-19T09:29:55;22.50;99.90
11136;DHT22;5622;50.840;4.948;2022-08-19T09:32:23;22.40;99.90
11136;DHT22;5622;50.840;4.948;2022-08-19T09:34:50;22.40;99.90
11136;DHT22;5622;50.840;4.948;2022-08-19T09:37:20;22.40;99.90
11136;DHT22;5622;50.840;4.948;2022-08-19T09:39:47;22.50;99.90
11136;DHT22;5622;50.840;4.948;2022-08-19T09:42:16;22.50;99.90
11136;DHT22;5622;50.840;4.948;2022-08-19T09:44:44;22.50;99.90
11136;DHT22;5622;50.840;4.948;2022-08-19T09:47:12;22.70;99.90
11136;DHT22;5622;50.840;4.948;2022-08-19T09:49:40;22.90;99.90
11136;DHT22;5622;50.840;4.948;2022-08-19T09:52:09;23.00;99.90
11136;DHT22;5622;50.840;4.948;2022-08-19T09:54:36;23.00;99.90
11136;DHT22;5622;50.840;4.948;2022-08-19T09:57:04;22.90;99.90
11136;DHT22;5622;50.840;4.948;2022-08-19T09:59:33;22.80;99.90
11136;DHT22;5622;50.840;4.948;2022-08-19T10:02:01;22.70;99.90
11136;DHT22;5622;50.840;4.948;2022-08-19T10:04:28;22.60;99.90
11136;DHT22;5622;50.840;4.948;2022-08-19T10:07:08;22.60;99.90
11136;DHT22;5622;50.840;4.948;2022-08-19T10:09:36;22.50;99.90
11136;DHT22;5622;50.840;4.948;2022-08-19T10:12:04;22.50;99.90
11136;DHT22;5622;50.840;4.948;2022-08-19T10:14:33;22.50;99.90
11136;DHT22;5622;50.840;4.948;2022-08-19T10:17:01;22.50;99.90
11136;DHT22;5622;50.840;4.948;2022-08-19T10:19:28;22.60;99.90
11136;DHT22;5622;50.840;4.948;2022-08-19T10:22:03;22.60;99.90
11136;DHT22;5622;50.840;4.948;2022-08-19T10:24:32;22.50;99.90
11136;DHT22;5622;50.840;4.948;2022-08-19T10:27:00;22.50;99.90
11136;DHT22;5622;50.840;4.948;2022-08-19T10:29:29;22.50;99.90
11136;DHT22;5622;50.840;4.948;2022-08-19T10:31:58;22.50;99.90
11136;DHT22;5622;50.840;4.948;2022-08-19T10:34:29;22.50;99.90
11136;DHT22;5622;50.840;4.948;2022-08-19T10:36:57;22.50;99.90
11136;DHT22;5622;50.840;4.948;2022-08-19T10:39:25;22.50;99.90
11136;DHT22;5622;50.840;4.948;2022-08-19T10:41:54;22.50;99.90
11136;DHT22;5622;50.840;4.948;2022-08-19T10:44:22;22.50;99.90
11136;DHT22;5622;50.840;4.948;2022-08-19T10:46:50;22.40;99.90
11136;DHT22;5622;50.840;4.948;2022-08-19T10:49:19;22.50;99.90
11136;DHT22;5622;50.840;4.948;2022-08-19T10:51:46;22.50;99.90
11136;DHT22;5622;50.840;4.948;2022-08-19T10:54:31;22.50;99.90
11136;DHT22;5622;50.840;4.948;2022-08-19T10:57:13;22.50;99.90
11136;DHT22;5622;50.840;4.948;2022-08-19T10:59:41;22.50;99.90
11136;DHT22;5622;50.840;4.948;2022-08-19T11:02:09;22.50;99.90
11136;DHT22;5622;50.840;4.948;2022-08-19T11:04:40;22.50;99.90
11136;DHT22;5622;50.840;4.948;2022-08-19T11:07:07;22.50;99.90
11136;DHT22;5622;50.840;4.948;2022-08-19T11:09:38;22.50;99.90
11136;DHT22;5622;50.840;4.948;2022-08-19T11:12:07;22.50;99.90
11136;DHT22;5622;50.840;4.948;2022-08-19T11:14:35;22.50;99.90
11136;DHT22;5622;50.840;4.948;2022-08-19T11:17:04;22.60;99.90
11136;DHT22;5622;50.840;4.948;2022-08-19T11:19:32;22.70;99.90
11136;DHT22;5622;50.840;4.948;2022-08-19T11:22:02;22.80;99.90
11136;DHT22;5622;50.840;4.948;2022-08-19T11:24:30;22.80;99.90
11136;DHT22;5622;50.840;4.948;2022-08-19T11:27:04;22.80;99.90
11136;DHT22;5622;50.840;4.948;2022-08-19T11:29:32;22.90;99.90
11136;DHT22;5622;50.840;4.948;2022-08-19T11:32:03;22.90;99.90
11136;DHT22;5622;50.840;4.948;2022-08-19T11:34:30;22.90;99.90
11136;DHT22;5622;50.840;4.948;2022-08-19T11:36:57;22.90;99.90
11136;DHT22;5622;50.840;4.948;2022-08-19T11:39:28;22.90;99.90
11136;DHT22;5622;50.840;4.948;2022-08-19T11:41:57;22.90;99.90
11136;DHT22;5622;50.840;4.948;2022-08-19T11:44:24;22.90;99.90
11136;DHT22;5622;50.840;4.948;2022-08-19T11:46:52;22.90;99.90
11136;DHT22;5622;50.840;4.948;2022-08-19T11:49:19;22.90;99.90
11136;DHT22;5622;50.840;4.948;2022-08-19T11:51:48;23.00;99.90
11136;DHT22;5622;50.840;4.948;2022-08-19T11:54:16;23.00;99.90
11136;DHT22;5622;50.840;4.948;2022-08-19T11:56:45;23.00;99.90
11136;DHT22;5622;50.840;4.948;2022-08-19T11:59:14;23.00;99.90
11136;DHT22;5622;50.840;4.948;2022-08-19T12:01:42;22.90;99.90
11136;DHT22;5622;50.840;4.948;2022-08-19T12:04:10;22.90;99.90
11136;DHT22;5622;50.840;4.948;2022-08-19T12:06:39;22.90;99.90
11136;DHT22;5622;50.840;4.948;2022-08-19T12:09:08;22.90;99.90
11136;DHT22;5622;50.840;4.948;2022-08-19T12:11:36;22.90;99.90
11136;DHT22;5622;50.840;4.948;2022-08-19T12:14:05;22.90;99.90
11136;DHT22;5622;50.840;4.948;2022-08-19T12:16:33;22.90;99.90
11136;DHT22;5622;50.840;4.948;2022-08-19T12:19:03;22.90;99.90
11136;DHT22;5622;50.840;4.948;2022-08-19T12:21:33;22.80;99.90
11136;DHT22;5622;50.840;4.948;2022-08-19T12:24:01;22.80;99.90
11136;DHT22;5622;50.840;4.948;2022-08-19T12:26:29;22.80;99.90
11136;DHT22;5622;50.840;4.948;2022-08-19T12:28:58;22.80;99.90
11136;DHT22;5622;50.840;4.948;2022-08-19T12:31:27;22.80;99.90
11136;DHT22;5622;50.840;4.948;2022-08-19T12:33:55;22.80;99.90
11136;DHT22;5622;50.840;4.948;2022-08-19T12:36:22;22.80;99.90
11136;DHT22;5622;50.840;4.948;2022-08-19T12:38:51;22.80;99.90
11136;DHT22;5622;50.840;4.948;2022-08-19T12:41:18;22.80;99.90
11136;DHT22;5622;50.840;4.948;2022-08-19T12:43:48;22.80;99.90
11136;DHT22;5622;50.840;4.948;2022-08-19T12:46:16;22.80;99.90
11136;DHT22;5622;50.840;4.948;2022-08-19T12:48:45;22.70;99.90
11136;DHT22;5622;50.840;4.948;2022-08-19T12:51:14;22.70;99.90
11136;DHT22;5622;50.840;4.948;2022-08-19T12:53:42;22.70;99.90
11136;DHT22;5622;50.840;4.948;2022-08-19T12:56:10;22.70;99.90
11136;DHT22;5622;50.840;4.948;2022-08-19T12:58:40;22.70;99.90
11136;DHT22;5622;50.840;4.948;2022-08-19T13:01:09;22.70;99.90
11136;DHT22;5622;50.840;4.948;2022-08-19T13:03:37;22.70;99.90
11136;DHT22;5622;50.840;4.948;2022-08-19T13:06:07;22.70;99.90
11136;DHT22;5622;50.840;4.948;2022-08-19T13:08:35;22.70;99.90
11136;DHT22;5622;50.840;4.948;2022-08-19T13:11:10;22.80;99.90
11136;DHT22;5622;50.840;4.948;2022-08-19T13:13:39;22.90;99.90
11136;DHT22;5622;50.840;4.948;2022-08-19T13:16:08;22.90;99.90
11136;DHT22;5622;50.840;4.948;2022-08-19T13:18:35;22.90;99.90
11136;DHT22;5622;50.840;4.948;2022-08-19T13:21:03;23.00;99.90
11136;DHT22;5622;50.840;4.948;2022-08-19T13:23:33;23.10;99.90
11136;DHT22;5622;50.840;4.948;2022-08-19T13:26:03;23.00;99.90
11136;DHT22;5622;50.840;4.948;2022-08-19T13:28:30;23.10;99.90
11136;DHT22;5622;50.840;4.948;2022-08-19T13:31:19;23.10;99.90
11136;DHT22;5622;50.840;4.948;2022-08-19T13:34:04;23.10;99.90
11136;DHT22;5622;50.840;4.948;2022-08-19T13:36:32;23.10;99.90
11136;DHT22;5622;50.840;4.948;2022-08-19T13:39:00;23.10;99.90
11136;DHT22;5622;50.840;4.948;2022-08-19T13:41:28;23.10;99.90
11136;DHT22;5622;50.840;4.948;2022-08-19T13:43:56;23.20;99.90
11136;DHT22;5622;50.840;4.948;2022-08-19T13:46:23;23.20;99.90
11136;DHT22;5622;50.840;4.948;2022-08-19T13:48:50;23.20;99.90
11136;DHT22;5622;50.840;4.948;2022-08-19T13:51:17;23.20;99.90
11136;DHT22;5622;50.840;4.948;2022-08-19T13:53:44;23.20;99.90
11136;DHT22;5622;50.840;4.948;2022-08-19T13:56:15;23.20;99.90
11136;DHT22;5622;50.840;4.948;2022-08-19T13:58:42;23.20;99.90
11136;DHT22;5622;50.840;4.948;2022-08-19T14:01:10;23.30;99.90
11136;DHT22;5622;50.840;4.948;2022-08-19T14:03:38;23.30;99.90
11136;DHT22;5622;50.840;4.948;2022-08-19T14:06:05;23.30;99.90
11136;DHT22;5622;50.840;4.948;2022-08-19T14:08:32;23.40;99.90
11136;DHT22;5622;50.840;4.948;2022-08-19T14:10:59;23.40;99.90
11136;DHT22;5622;50.840;4.948;2022-08-19T14:13:28;23.40;99.90
11136;DHT22;5622;50.840;4.948;2022-08-19T14:15:56;23.40;99.90
11136;DHT22;5622;50.840;4.948;2022-08-19T14:18:23;23.40;99.90
11136;DHT22;5622;50.840;4.948;2022-08-19T14:20:51;23.50;99.90
11136;DHT22;5622;50.840;4.948;2022-08-19T14:23:18;23.50;99.90
11136;DHT22;5622;50.840;4.948;2022-08-19T14:25:45;23.50;99.90
11136;DHT22;5622;50.840;4.948;2022-08-19T14:28:13;23.50;99.90
11136;DHT22;5622;50.840;4.948;2022-08-19T14:30:41;23.50;99.90
11136;DHT22;5622;50.840;4.948;2022-08-19T14:33:10;23.50;99.90
11136;DHT22;5622;50.840;4.948;2022-08-19T14:35:37;23.50;99.90
11136;DHT22;5622;50.840;4.948;2022-08-19T14:38:05;23.50;99.90
11136;DHT22;5622;50.840;4.948;2022-08-19T14:40:33;23.50;99.90
11136;DHT22;5622;50.840;4.948;2022-08-19T14:43:02;23.50;99.90
11136;DHT22;5622;50.840;4.948;2022-08-19T14:45:30;23.40;99.90
11136;DHT22;5622;50.840;4.948;2022-08-19T14:47:59;23.50;99.90
11136;DHT22;5622;50.840;4.948;2022-08-19T14:50:27;23.50;99.90
11136;DHT22;5622;50.840;4.948;2022-08-19T14:52:59;23.60;99.90
11136;DHT22;5622;50.840;4.948;2022-08-19T14:55:27;23.70;99.90
11136;DHT22;5622;50.840;4.948;2022-08-19T14:57:54;23.70;99.90
11136;DHT22;5622;50.840;4.948;2022-08-19T15:00:22;23.70;99.90
11136;DHT22;5622;50.840;4.948;2022-08-19T15:02:49;23.70;99.90
11136;DHT22;5622;50.840;4.948;2022-08-19T15:05:18;23.70;99.90
11136;DHT22;5622;50.840;4.948;2022-08-19T15:07:45;23.80;99.90
11136;DHT22;5622;50.840;4.948;2022-08-19T15:10:13;23.80;99.90
11136;DHT22;5622;50.840;4.948;2022-08-19T15:12:41;23.80;99.90
11136;DHT22;5622;50.840;4.948;2022-08-19T15:15:10;23.80;99.90
11136;DHT22;5622;50.840;4.948;2022-08-19T15:17:39;23.70;99.90
11136;DHT22;5622;50.840;4.948;2022-08-19T15:20:07;23.70;99.90
11136;DHT22;5622;50.840;4.948;2022-08-19T15:22:37;23.60;99.90
11136;DHT22;5622;50.840;4.948;2022-08-19T15:25:05;23.60;99.90
11136;DHT22;5622;50.840;4.948;2022-08-19T15:27:33;23.60;99.90
11136;DHT22;5622;50.840;4.948;2022-08-19T15:30:01;23.50;99.90
11136;DHT22;5622;50.840;4.948;2022-08-19T15:32:29;23.50;99.90
11136;DHT22;5622;50.840;4.948;2022-08-19T15:34:56;23.50;99.90
11136;DHT22;5622;50.840;4.948;2022-08-19T15:37:23;23.50;99.90
11136;DHT22;5622;50.840;4.948;2022-08-19T15:39:52;23.60;99.90
11136;DHT22;5622;50.840;4.948;2022-08-19T15:42:19;23.70;99.90
11136;DHT22;5622;50.840;4.948;2022-08-19T15:44:46;23.80;99.90
11136;DHT22;5622;50.840;4.948;2022-08-19T15:47:14;23.70;99.90
11136;DHT22;5622;50.840;4.948;2022-08-19T15:49:41;23.70;99.90
11136;DHT22;5622;50.840;4.948;2022-08-19T15:52:08;23.60;99.90
11136;DHT22;5622;50.840;4.948;2022-08-19T15:54:35;23.50;99.90
11136;DHT22;5622;50.840;4.948;2022-08-19T15:57:05;23.50;99.90
11136;DHT22;5622;50.840;4.948;2022-08-19T15:59:49;23.40;99.90
11136;DHT22;5622;50.840;4.948;2022-08-19T16:02:34;23.30;99.90